createdAt,value
2018-03-02T00:01:11.435Z,93460.89
2018-03-02T00:03:44.718Z,93450.12
2018-03-02T00:06:18.010Z,93447.02
2018-03-02T00:08:51.267Z,93446.95
2018-03-02T00:11:24.545Z,93446.72
2018-03-02T00:13:57.797Z,93444.63
2018-03-02T01:47:35.121Z,93306.06
2018-03-02T01:50:09.163Z,93300.89
2018-03-02T01:52:42.441Z,93300.48
2018-03-02T01:55:16.493Z,93290.94
2018-03-02T01:57:49.754Z,93292.81
2018-03-02T03:31:31.089Z,93256.95
2018-03-02T03:34:04.369Z,93255.87
2018-03-02T03:36:37.678Z,93258.59
2018-03-02T03:39:10.931Z,93254.31
2018-03-02T03:41:45.006Z,93255.05
2018-03-02T03:44:18.272Z,93251.38
2018-03-02T05:31:01.638Z,93123.64
2018-03-02T05:33:34.913Z,93118.87
2018-03-02T05:36:08.192Z,93131.31
2018-03-02T05:38:41.457Z,93126.70
2018-03-02T05:41:15.514Z,93131.53
2018-03-02T05:43:48.778Z,93126.15
2018-03-02T05:46:22.087Z,93129.88
2018-03-02T05:48:55.351Z,93126.63
2018-03-02T05:51:28.653Z,93129.35
2018-03-02T05:54:02.699Z,93130.38
2018-03-02T05:56:35.989Z,93131.78
2018-03-02T05:59:09.265Z,93130.70
2018-03-02T06:01:43.318Z,93131.67
2018-03-02T06:04:16.570Z,93121.60
2018-03-02T06:06:49.958Z,93122.83
2018-03-02T06:09:23.234Z,93115.60
2018-03-02T06:11:56.529Z,93107.70
2018-03-02T06:14:29.815Z,93106.83
2018-03-02T06:17:03.089Z,93099.89
2018-03-02T06:19:36.372Z,93096.16
2018-03-02T06:22:09.634Z,93089.03
2018-03-02T06:24:43.696Z,93094.68
2018-03-02T06:27:16.956Z,93092.43
2018-03-02T06:29:50.257Z,93084.13
2018-03-02T06:32:23.517Z,93090.44
2018-03-02T06:34:57.584Z,93093.43
2018-03-02T06:37:30.848Z,93108.74
2018-03-02T06:40:04.145Z,93106.34
2018-03-02T06:42:37.409Z,93104.58
2018-03-02T06:45:10.711Z,93108.93
2018-03-02T06:47:44.760Z,93109.52
2018-03-02T06:50:18.048Z,93104.95
2018-03-02T06:52:51.357Z,93107.28
2018-03-02T06:55:24.610Z,93104.00
2018-03-02T06:57:57.896Z,93094.19
2018-03-02T07:00:31.181Z,93097.98
2018-03-02T07:03:04.459Z,93093.56
2018-03-02T07:05:37.718Z,93093.03
2018-03-02T07:08:11.013Z,93086.02
2018-03-02T07:10:44.265Z,93085.40
2018-03-02T07:13:18.313Z,93079.13
2018-03-02T07:15:51.578Z,93081.55
2018-03-02T07:18:25.620Z,93072.70
2018-03-02T07:20:58.880Z,93076.02
2018-03-02T07:23:32.173Z,93078.78
2018-03-02T07:26:06.217Z,93080.37
2018-03-02T07:28:39.501Z,93076.94
2018-03-02T09:02:23.026Z,92993.02
2018-03-02T09:04:56.328Z,92993.84
2018-03-02T09:07:29.610Z,92999.14
2018-03-02T09:10:02.906Z,92989.37
2018-03-02T09:12:36.179Z,92985.11
2018-03-02T09:15:09.460Z,92980.33
2018-03-02T11:01:54.945Z,92901.23
2018-03-02T11:04:33.660Z,92894.48
2018-03-02T11:07:06.937Z,92890.46
2018-03-02T11:09:40.205Z,92888.58
2018-03-02T11:12:13.496Z,92884.77
2018-03-02T11:14:47.523Z,92886.65
2018-03-02T13:01:27.858Z,92870.67
2018-03-02T13:04:01.141Z,92876.06
2018-03-02T13:06:34.521Z,92874.73
2018-03-02T13:09:07.812Z,92874.16
2018-03-02T13:11:41.106Z,92871.62
2018-03-02T13:14:14.356Z,92874.09
2018-03-02T15:00:55.824Z,93149.48
2018-03-02T15:03:29.083Z,93153.08
2018-03-02T15:06:02.383Z,93155.77
2018-03-02T15:08:35.665Z,93168.11
2018-03-02T15:11:08.931Z,93168.44
2018-03-02T15:13:42.232Z,93169.35
2018-03-02T15:45:54.013Z,93216.75
2018-03-02T15:48:27.288Z,93212.92
2018-03-02T15:51:01.344Z,93210.17
2018-03-02T15:53:34.628Z,93215.59
2018-03-02T15:56:07.905Z,93215.52
2018-03-02T15:58:41.961Z,93208.92
2018-03-02T16:01:15.369Z,93216.77
2018-03-02T16:03:49.770Z,93217.16
2018-03-02T16:06:23.207Z,93223.41
2018-03-02T16:08:57.110Z,93228.45
2018-03-02T16:11:30.474Z,93233.17
2018-03-02T16:14:03.761Z,93245.63
2018-03-02T16:16:37.024Z,93238.38
2018-03-02T16:19:10.309Z,93245.14
2018-03-02T16:21:44.335Z,93250.59
2018-03-02T16:24:17.629Z,93253.75
2018-03-02T16:26:51.645Z,93254.25
2018-03-02T16:29:24.949Z,93257.42
2018-03-02T16:31:58.418Z,93263.98
2018-03-02T16:34:34.181Z,93270.17
2018-03-02T16:37:10.398Z,93280.58
2018-03-02T16:39:44.929Z,93285.92
2018-03-02T16:42:18.896Z,93286.33
2018-03-02T16:44:53.561Z,93290.98
2018-03-02T16:47:27.558Z,93298.63
2018-03-02T16:50:00.844Z,93308.00
2018-03-02T16:52:34.839Z,93314.25
2018-03-02T16:55:09.874Z,93310.34
2018-03-02T16:57:43.978Z,93314.34
2018-03-02T17:00:18.395Z,93315.89
2018-03-02T17:03:02.791Z,93316.47
2018-03-02T17:05:37.134Z,93329.13
2018-03-02T17:08:11.163Z,93327.27
2018-03-02T17:10:44.523Z,93330.17
2018-03-02T17:13:17.844Z,93337.41
2018-03-02T17:15:51.984Z,93339.18
2018-03-02T17:18:26.155Z,93337.15
2018-03-02T17:21:01.208Z,93347.06
2018-03-02T17:23:34.473Z,93356.50
2018-03-02T17:26:07.791Z,93361.38
2018-03-02T17:28:41.097Z,93360.89
2018-03-02T17:31:14.521Z,93358.78
2018-03-02T17:33:47.811Z,93366.42
2018-03-02T17:36:21.835Z,93376.02
2018-03-02T17:38:55.168Z,93372.03
2018-03-02T17:41:28.433Z,93381.95
2018-03-02T17:44:01.732Z,93385.81
2018-03-02T17:46:34.980Z,93383.27
2018-03-02T17:49:09.034Z,93389.65
2018-03-02T17:51:42.304Z,93389.57
2018-03-02T17:54:16.357Z,93390.13
2018-03-02T17:56:49.612Z,93403.11
2018-03-02T17:59:22.903Z,93403.60
2018-03-02T18:01:56.174Z,93399.99
2018-03-02T18:04:29.474Z,93408.86
2018-03-02T18:07:02.730Z,93407.31
2018-03-02T18:09:36.021Z,93407.44
2018-03-02T18:12:09.309Z,93407.52
2018-03-02T18:14:42.589Z,93412.77
2018-03-02T18:17:15.850Z,93415.64
2018-03-02T18:19:49.133Z,93415.16
2018-03-02T18:22:22.398Z,93408.33
2018-03-02T18:24:55.689Z,93413.94
2018-03-02T18:27:28.962Z,93413.13
2018-03-02T18:30:02.471Z,93417.03
2018-03-02T18:32:36.775Z,93418.73
2018-03-02T18:35:10.037Z,93423.86
2018-03-02T18:37:44.090Z,93416.70
2018-03-02T18:40:17.381Z,93427.03
2018-03-02T18:42:50.664Z,93432.27
2018-03-02T18:45:23.926Z,93431.37
2018-03-02T18:47:57.978Z,93436.53
2018-03-02T18:50:31.240Z,93437.52
2018-03-02T18:53:04.527Z,93429.30
2018-03-02T18:55:39.300Z,93429.75
2018-03-02T18:58:12.597Z,93429.42
2018-03-02T19:00:45.849Z,93429.95
2018-03-02T19:03:20.023Z,93427.27
2018-03-02T19:05:53.262Z,93430.52
2018-03-02T19:08:27.313Z,93428.25
2018-03-02T19:11:00.573Z,93433.98
2018-03-02T19:13:35.354Z,93430.23
2018-03-02T19:16:08.619Z,93431.41
2018-03-02T19:18:41.972Z,93433.16
2018-03-02T19:21:15.280Z,93435.63
2018-03-02T19:23:49.427Z,93427.02
2018-03-02T19:26:22.713Z,93431.65
2018-03-02T19:28:56.004Z,93430.02
2018-03-02T19:31:29.261Z,93427.91
2018-03-02T19:34:02.549Z,93432.82
2018-03-02T19:36:35.808Z,93431.36
2018-03-02T19:39:09.094Z,93431.52
2018-03-02T19:41:42.358Z,93428.34
2018-03-02T19:44:16.412Z,93426.55
2018-03-02T19:46:49.673Z,93430.55
2018-03-02T19:49:22.968Z,93427.20
2018-03-02T19:52:02.206Z,93433.88
2018-03-02T19:54:36.340Z,93427.45
2018-03-02T19:57:09.604Z,93426.88
2018-03-02T19:59:42.893Z,93426.72
2018-03-02T20:02:16.182Z,93429.16
2018-03-02T20:04:50.230Z,93427.05
2018-03-02T20:07:23.492Z,93422.98
2018-03-02T20:09:57.553Z,93420.86
2018-03-02T20:12:31.588Z,93422.48
2018-03-02T20:15:04.881Z,93424.52
2018-03-02T20:17:38.144Z,93428.91
2018-03-02T20:20:11.433Z,93430.70
2018-03-02T20:22:44.690Z,93430.30
2018-03-02T20:25:18.861Z,93429.97
2018-03-02T20:27:52.146Z,93428.18
2018-03-02T20:30:25.510Z,93421.10
2018-03-02T20:32:58.878Z,93424.88
2018-03-02T20:35:32.978Z,93428.21
2018-03-02T20:38:06.339Z,93421.54
2018-03-02T20:40:39.674Z,93416.17
2018-03-02T20:43:12.994Z,93417.71
2018-03-02T20:45:47.042Z,93425.77
2018-03-02T20:48:20.309Z,93427.06
2018-03-02T20:50:53.601Z,93431.95
2018-03-02T20:53:26.859Z,93432.59
2018-03-02T20:56:00.160Z,93435.96
2018-03-02T20:58:33.416Z,93420.67
2018-03-02T21:01:06.709Z,93427.66
2018-03-02T21:03:39.956Z,93422.45
2018-03-02T21:06:14.008Z,93421.89
2018-03-02T21:08:47.286Z,93423.11
2018-03-02T21:11:20.555Z,93428.15
2018-03-02T21:13:54.590Z,93432.46
2018-03-02T21:16:27.864Z,93429.28
2018-03-02T21:19:01.893Z,93434.00
2018-03-02T21:21:35.185Z,93438.64
2018-03-02T21:24:09.246Z,93430.02
2018-03-02T21:26:42.526Z,93438.02
2018-03-02T21:29:15.785Z,93437.04
2018-03-02T21:31:49.959Z,93435.25
2018-03-02T21:34:24.111Z,93438.09
2018-03-02T21:36:57.410Z,93440.05
2018-03-02T21:39:30.697Z,93443.87
2018-03-02T21:42:04.722Z,93441.59
2018-03-02T21:44:38.008Z,93441.34
2018-03-02T21:47:11.273Z,93434.34
2018-03-02T21:49:44.551Z,93440.85
2018-03-02T21:52:17.814Z,93443.41
2018-03-02T21:54:51.098Z,93432.83
2018-03-02T21:57:24.371Z,93442.66
2018-03-02T21:59:58.403Z,93435.59
2018-03-02T22:02:31.689Z,93435.91
2018-03-02T22:05:05.715Z,93430.13
2018-03-02T22:07:38.993Z,93438.27
2018-03-02T22:10:12.252Z,93435.98
2018-03-02T22:12:45.553Z,93433.89
2018-03-02T22:15:20.299Z,93434.22
2018-03-02T22:17:54.357Z,93430.23
2018-03-02T22:20:27.633Z,93433.07
2018-03-02T22:23:00.897Z,93435.02
2018-03-02T22:25:34.936Z,93428.34
2018-03-02T22:28:08.197Z,93437.64
2018-03-02T22:30:42.261Z,93427.23
2018-03-02T22:33:15.533Z,93432.92
2018-03-02T22:35:48.826Z,93435.94
2018-03-02T22:38:22.077Z,93433.01
2018-03-02T22:40:55.373Z,93432.60
2018-03-02T22:43:28.641Z,93427.80
2018-03-02T22:46:01.938Z,93421.78
2018-03-02T22:48:35.225Z,93426.09
2018-03-02T22:51:08.481Z,93429.59
2018-03-02T22:53:41.770Z,93424.22
2018-03-02T22:56:15.028Z,93426.82
2018-03-02T22:58:48.312Z,93425.44
2018-03-02T23:01:21.577Z,93423.64
2018-03-02T23:03:54.865Z,93421.84
2018-03-02T23:06:28.125Z,93420.06
2018-03-02T23:09:01.415Z,93416.88
2018-03-02T23:11:34.672Z,93426.89
2018-03-02T23:14:07.956Z,93416.88
2018-03-02T23:16:41.213Z,93427.95
2018-03-02T23:19:14.505Z,93426.64
2018-03-02T23:21:47.784Z,93423.38
2018-03-02T23:24:21.084Z,93419.06
2018-03-02T23:26:55.109Z,93421.18
2018-03-02T23:29:28.402Z,93420.64
2018-03-02T23:32:01.675Z,93415.09
2018-03-02T23:34:34.965Z,93419.00
2018-03-02T23:37:08.266Z,93414.36
2018-03-02T23:39:42.292Z,93407.77
2018-03-02T23:42:16.353Z,93421.84
2018-03-02T23:44:49.625Z,93427.38
2018-03-02T23:47:22.891Z,93430.47
2018-03-02T23:49:56.950Z,93425.09
2018-03-02T23:52:30.205Z,93431.12
2018-03-02T23:55:03.496Z,93433.15
2018-03-02T23:57:36.753Z,93434.95
